Startup, Washington
Current Conditions -  °F | °C
As of 2:53 AM on Sunday 23 Nov 2014 (Local Time) from KPAE Reporting Station
Overcast Overcast  
Wind Chill: 40°   Ceiling: 1300
Heat Index: 47°   Visibility: 10mi
Dew Point: 43°   Wind: 16mph
Humidity: 86%   Direction: 190°S
Pressure: 30.12"   Gusts: NA
Location:  47.87°N, 121.74°W
Report Text: KPAE 231053Z AUTO 19014KT 10SM BKN013 OVC018 08/06 A3012 RMK AO2 SLP200 T00830061 $
Loading
Personal Weather Stations






























Interactive Weather Map New forecast layout! Learn more

10-Day Weather Forecast

Advertisements
Track Severe Weather on mobile